createdAt,value
2023-05-22T00:00:05.252Z,0.00
2023-05-22T00:01:05.270Z,0.00
2023-05-22T00:02:05.264Z,0.00
2023-05-22T00:03:05.285Z,0.00
2023-05-22T00:04:05.230Z,0.00
2023-05-22T00:05:05.283Z,0.00
2023-05-22T00:06:05.196Z,0.00
2023-05-22T00:07:05.193Z,0.00
2023-05-22T00:08:06.154Z,0.00
2023-05-22T00:09:05.161Z,0.00
2023-05-22T00:10:05.151Z,0.00
2023-05-22T00:11:05.168Z,0.00
2023-05-22T00:12:05.120Z,0.00
2023-05-22T00:13:05.117Z,0.00
2023-05-22T00:14:05.099Z,0.00
2023-05-22T00:15:05.095Z,0.00
2023-05-22T00:16:05.079Z,0.00
2023-05-22T00:17:05.119Z,0.00
2023-05-22T00:18:05.072Z,0.00
2023-05-22T00:19:05.112Z,0.00
2023-05-22T00:20:05.029Z,0.00
2023-05-22T00:21:05.023Z,0.00
2023-05-22T00:22:05.013Z,0.00
2023-05-22T00:23:05.005Z,0.00
2023-05-22T00:24:05.020Z,0.00
2023-05-22T00:25:04.995Z,0.00
2023-05-22T00:26:04.966Z,0.00
2023-05-22T00:27:04.951Z,0.00
2023-05-22T00:28:04.936Z,0.00
2023-05-22T00:29:04.957Z,0.00
2023-05-22T00:30:04.914Z,0.00
2023-05-22T00:31:04.908Z,0.00
2023-05-22T00:32:04.903Z,0.00
2023-05-22T00:33:04.938Z,0.00
2023-05-22T00:34:04.937Z,0.00
2023-05-22T00:35:04.942Z,0.00
2023-05-22T00:36:04.855Z,0.00
2023-05-22T00:37:04.840Z,0.00
2023-05-22T00:38:04.826Z,0.00
2023-05-22T00:39:04.832Z,0.00
2023-05-22T00:40:04.829Z,0.00
2023-05-22T00:41:04.819Z,0.00
2023-05-22T00:42:04.793Z,0.00
2023-05-22T00:43:04.770Z,0.00
2023-05-22T00:44:04.771Z,0.00
2023-05-22T00:45:04.756Z,0.00
2023-05-22T00:46:04.778Z,0.00
2023-05-22T00:47:04.743Z,0.00
2023-05-22T00:48:04.759Z,0.00
2023-05-22T00:49:04.721Z,0.00
2023-05-22T00:50:04.689Z,0.00
2023-05-22T00:51:04.686Z,0.00
2023-05-22T00:52:04.666Z,0.00
2023-05-22T00:53:04.667Z,0.00
2023-05-22T00:54:04.683Z,0.00
2023-05-22T00:55:04.642Z,0.00
2023-05-22T00:56:04.657Z,0.00
2023-05-22T00:57:04.638Z,0.00
2023-05-22T00:58:04.624Z,0.00
2023-05-22T00:59:04.596Z,0.00
2023-05-22T01:00:04.605Z,0.00
2023-05-22T01:01:04.567Z,0.00
2023-05-22T01:02:04.597Z,0.00
2023-05-22T01:03:04.673Z,0.00
2023-05-22T01:04:04.565Z,0.00
2023-05-22T01:05:04.527Z,0.00
2023-05-22T01:06:04.522Z,0.00
2023-05-22T01:07:04.497Z,0.00
2023-05-22T01:08:04.490Z,0.00
2023-05-22T01:09:04.514Z,0.00
2023-05-22T01:10:04.493Z,0.00
2023-05-22T01:11:04.462Z,0.00
2023-05-22T01:12:04.471Z,0.00
2023-05-22T01:13:04.438Z,0.00
2023-05-22T01:14:04.419Z,0.00
2023-05-22T01:15:04.458Z,0.00
2023-05-22T01:16:04.469Z,0.00
2023-05-22T01:17:04.392Z,0.00
2023-05-22T01:18:04.418Z,0.00
2023-05-22T01:19:04.391Z,0.00
2023-05-22T01:20:04.354Z,0.00
2023-05-22T01:21:04.373Z,0.00
2023-05-22T01:22:04.347Z,0.00
2023-05-22T01:23:04.314Z,0.00
2023-05-22T01:24:04.316Z,0.00
2023-05-22T01:25:04.296Z,0.00
2023-05-22T01:26:04.303Z,0.00
2023-05-22T01:27:04.285Z,0.00
2023-05-22T01:28:04.298Z,0.00
2023-05-22T01:29:04.264Z,0.00
2023-05-22T01:30:04.239Z,0.00
2023-05-22T01:31:04.231Z,0.00
2023-05-22T01:32:04.220Z,0.00
2023-05-22T01:33:04.327Z,0.00
2023-05-22T01:34:04.290Z,0.00
2023-05-22T01:35:04.217Z,0.00
2023-05-22T01:36:04.174Z,0.00
2023-05-22T01:37:04.161Z,0.00
2023-05-22T01:38:04.168Z,0.00
2023-05-22T01:39:04.163Z,0.00
2023-05-22T01:40:04.139Z,0.00
2023-05-22T01:41:04.121Z,0.00
2023-05-22T01:42:04.119Z,0.00
2023-05-22T01:43:04.089Z,0.00
2023-05-22T01:44:04.233Z,0.00
2023-05-22T01:45:04.104Z,0.00
2023-05-22T01:46:04.118Z,0.00
2023-05-22T01:47:04.053Z,0.00
2023-05-22T01:48:04.062Z,0.00
2023-05-22T01:49:04.032Z,0.00
2023-05-22T01:50:04.031Z,0.00
2023-05-22T01:51:04.018Z,0.00
2023-05-22T01:52:03.996Z,0.00
2023-05-22T01:53:03.981Z,0.00
2023-05-22T01:54:03.972Z,0.00
2023-05-22T01:55:03.971Z,0.00
2023-05-22T01:56:03.968Z,0.00
2023-05-22T01:57:03.932Z,0.00
2023-05-22T01:58:03.938Z,0.00
2023-05-22T01:59:03.933Z,0.00
2023-05-22T02:00:03.923Z,0.00
2023-05-22T02:01:03.982Z,0.00
2023-05-22T02:02:03.912Z,0.00
2023-05-22T02:03:04.062Z,0.00
2023-05-22T02:04:03.874Z,0.00
2023-05-22T02:05:03.865Z,0.00
2023-05-22T02:06:03.856Z,0.00
2023-05-22T02:07:03.842Z,0.00
2023-05-22T02:08:03.810Z,0.00
2023-05-22T02:09:03.819Z,0.00
2023-05-22T02:10:03.809Z,0.00
2023-05-22T02:11:03.788Z,0.00
2023-05-22T02:12:03.782Z,0.00
2023-05-22T02:13:03.752Z,0.00
2023-05-22T02:14:03.750Z,0.00
2023-05-22T02:15:03.748Z,0.00
2023-05-22T02:16:03.779Z,0.00
2023-05-22T02:17:03.742Z,0.00
2023-05-22T02:18:03.756Z,0.00
2023-05-22T02:19:03.776Z,0.00
2023-05-22T02:20:03.677Z,0.00
2023-05-22T02:21:03.678Z,0.00
2023-05-22T02:22:03.662Z,0.00
2023-05-22T02:23:03.681Z,0.00
2023-05-22T02:24:03.686Z,0.00
2023-05-22T02:25:03.616Z,0.00
2023-05-22T02:26:03.605Z,0.00
2023-05-22T02:27:03.642Z,0.00
2023-05-22T02:28:03.588Z,0.00
2023-05-22T02:29:03.636Z,0.00
2023-05-22T02:30:03.572Z,0.00
2023-05-22T02:31:03.660Z,0.00
2023-05-22T02:32:03.574Z,0.00
2023-05-22T02:33:03.604Z,0.00
2023-05-22T02:34:03.520Z,0.00
2023-05-22T02:35:03.518Z,0.00
2023-05-22T02:36:03.501Z,0.00
2023-05-22T02:37:03.481Z,0.00
2023-05-22T02:38:03.560Z,0.00
2023-05-22T02:39:03.457Z,0.00
2023-05-22T02:40:03.457Z,0.00
2023-05-22T02:41:03.443Z,0.00
2023-05-22T02:42:03.432Z,0.00
2023-05-22T02:43:03.444Z,0.00
2023-05-22T02:44:03.422Z,0.00
2023-05-22T02:45:03.439Z,0.00
2023-05-22T02:46:03.499Z,0.00
2023-05-22T02:47:03.418Z,0.00
2023-05-22T02:48:03.637Z,0.00
2023-05-22T02:49:03.347Z,0.00
2023-05-22T02:50:03.331Z,0.00
2023-05-22T02:51:03.343Z,0.00
2023-05-22T02:52:03.331Z,0.00
2023-05-22T02:53:03.303Z,0.00
2023-05-22T02:54:03.297Z,0.00
2023-05-22T02:55:03.282Z,0.00
2023-05-22T02:56:03.300Z,0.00
2023-05-22T02:57:03.253Z,0.00
2023-05-22T02:58:03.244Z,0.00
2023-05-22T02:59:03.233Z,0.00
2023-05-22T03:00:03.224Z,0.00
2023-05-22T03:01:03.252Z,0.00
2023-05-22T03:02:03.348Z,0.00
2023-05-22T03:03:03.248Z,0.00
2023-05-22T03:04:03.412Z,0.00
2023-05-22T03:05:03.171Z,0.00
2023-05-22T03:06:03.161Z,4.00
2023-05-22T03:07:03.152Z,0.00
2023-05-22T03:08:03.129Z,0.00
2023-05-22T03:09:03.140Z,4.00
2023-05-22T03:10:03.104Z,4.00
2023-05-22T03:11:03.098Z,4.00
2023-05-22T03:12:03.084Z,4.00
2023-05-22T03:13:03.069Z,4.00
2023-05-22T03:14:03.072Z,4.00
2023-05-22T03:15:03.089Z,4.00
2023-05-22T03:16:03.088Z,4.00
2023-05-22T03:17:03.028Z,4.00
2023-05-22T03:18:03.069Z,4.00
2023-05-22T03:19:03.054Z,4.00
2023-05-22T03:20:03.127Z,8.00
2023-05-22T03:21:02.978Z,8.00
2023-05-22T03:22:02.988Z,8.00
2023-05-22T03:23:02.986Z,8.00
2023-05-22T03:24:02.971Z,8.00
2023-05-22T03:25:02.945Z,12.00
2023-05-22T03:26:02.975Z,12.00
2023-05-22T03:27:02.945Z,12.00
2023-05-22T03:28:02.908Z,16.00
2023-05-22T03:29:02.965Z,16.00
2023-05-22T03:30:02.887Z,16.00
2023-05-22T03:31:02.871Z,16.00
2023-05-22T03:32:02.906Z,16.00
2023-05-22T03:33:02.886Z,20.00
2023-05-22T03:34:02.947Z,16.00
2023-05-22T03:35:02.843Z,20.00
2023-05-22T03:36:02.849Z,20.00
2023-05-22T03:37:02.801Z,20.00
2023-05-22T03:38:02.940Z,20.00
2023-05-22T03:39:02.795Z,24.00
2023-05-22T03:40:03.411Z,24.00
2023-05-22T03:41:02.770Z,28.00
2023-05-22T03:42:02.760Z,32.00
2023-05-22T03:43:03.735Z,36.00
2023-05-22T03:44:02.726Z,40.00
2023-05-22T03:45:02.731Z,40.00
2023-05-22T03:46:02.782Z,40.00
2023-05-22T03:47:02.689Z,44.00
2023-05-22T03:48:02.798Z,44.00
2023-05-22T03:49:02.682Z,44.00
2023-05-22T03:50:02.667Z,44.00
2023-05-22T03:51:02.678Z,44.00
2023-05-22T03:52:02.666Z,48.00
2023-05-22T03:53:02.624Z,52.00
2023-05-22T03:54:02.613Z,56.00
2023-05-22T03:55:02.631Z,60.00
2023-05-22T03:56:02.605Z,64.00
2023-05-22T03:57:02.581Z,68.00
2023-05-22T03:58:02.573Z,80.00
2023-05-22T03:59:02.553Z,92.00
2023-05-22T04:00:02.547Z,96.00
2023-05-22T04:01:02.545Z,100.00
2023-05-22T04:02:02.593Z,104.00
2023-05-22T04:03:02.577Z,108.00
2023-05-22T04:04:02.518Z,108.00
2023-05-22T04:05:02.532Z,112.00
2023-05-22T04:06:02.487Z,116.00
2023-05-22T04:07:02.476Z,116.00
2023-05-22T04:08:02.479Z,120.00
2023-05-22T04:09:02.456Z,132.00
2023-05-22T04:10:02.447Z,144.00
2023-05-22T04:11:02.426Z,152.00
2023-05-22T04:12:02.447Z,168.00
2023-05-22T04:13:02.392Z,180.00
2023-05-22T04:14:02.386Z,200.00
2023-05-22T04:15:02.381Z,208.00
2023-05-22T04:16:02.428Z,212.00
2023-05-22T04:17:02.354Z,208.00
2023-05-22T04:18:02.392Z,212.00
2023-05-22T04:19:02.385Z,212.00
2023-05-22T04:20:02.345Z,212.00
2023-05-22T04:21:02.306Z,208.00
2023-05-22T04:22:02.319Z,228.00
2023-05-22T04:23:02.285Z,248.00
2023-05-22T04:24:02.299Z,272.00
2023-05-22T04:25:02.262Z,300.00
2023-05-22T04:26:02.254Z,320.00
2023-05-22T04:27:02.246Z,336.00
2023-05-22T04:28:02.236Z,348.00
2023-05-22T04:29:02.227Z,352.00
2023-05-22T04:30:02.231Z,352.00
2023-05-22T04:31:02.260Z,364.00
2023-05-22T04:32:02.193Z,348.00
2023-05-22T04:33:02.190Z,364.00
2023-05-22T04:34:02.169Z,376.00
2023-05-22T04:35:02.164Z,404.00
2023-05-22T04:36:02.138Z,400.00
2023-05-22T04:37:02.136Z,400.00
2023-05-22T04:38:02.237Z,408.00
2023-05-22T04:39:02.113Z,428.00
2023-05-22T04:40:02.111Z,464.00
2023-05-22T04:41:02.072Z,476.00
2023-05-22T04:42:02.070Z,484.00
2023-05-22T04:43:02.059Z,480.00
2023-05-22T04:44:02.059Z,480.00
2023-05-22T04:45:02.034Z,496.00
2023-05-22T04:46:02.022Z,524.00
2023-05-22T04:47:02.141Z,508.00
2023-05-22T04:48:02.040Z,468.00
2023-05-22T04:49:02.184Z,516.00
2023-05-22T04:50:01.976Z,544.00
2023-05-22T04:51:01.980Z,576.00
2023-05-22T04:52:01.967Z,612.00
2023-05-22T04:53:01.944Z,636.00
2023-05-22T04:54:01.945Z,596.00
2023-05-22T04:55:03.314Z,680.00
2023-05-22T04:56:02.027Z,708.00
2023-05-22T04:57:01.910Z,716.00
2023-05-22T04:58:01.899Z,720.00
2023-05-22T04:59:01.899Z,716.00
2023-05-22T05:00:01.908Z,700.00
2023-05-22T05:01:01.898Z,708.00
2023-05-22T05:02:01.849Z,704.00
2023-05-22T05:03:01.992Z,728.00
2023-05-22T05:04:01.873Z,756.00
2023-05-22T05:05:01.814Z,792.00
2023-05-22T05:06:01.800Z,764.00
2023-05-22T05:07:01.782Z,824.00
2023-05-22T05:08:01.798Z,828.00
2023-05-22T05:09:01.754Z,940.00
2023-05-22T05:10:01.766Z,1008.00
2023-05-22T05:11:01.743Z,1040.00
2023-05-22T05:12:01.751Z,988.00
2023-05-22T05:13:01.717Z,956.00
2023-05-22T05:14:01.730Z,936.00
2023-05-22T05:15:01.718Z,1016.00
2023-05-22T05:16:01.718Z,1040.00
2023-05-22T05:17:01.724Z,1164.00
2023-05-22T05:18:01.758Z,1288.00
2023-05-22T05:19:01.714Z,1300.00
2023-05-22T05:20:01.639Z,1360.00
2023-05-22T05:21:01.620Z,1204.00
2023-05-22T05:22:01.643Z,984.00
2023-05-22T05:23:01.624Z,884.00
2023-05-22T05:24:01.591Z,828.00
2023-05-22T05:25:01.635Z,796.00
2023-05-22T05:26:01.587Z,772.00
2023-05-22T05:27:01.549Z,760.00
2023-05-22T05:28:01.588Z,760.00
2023-05-22T05:29:01.542Z,764.00
2023-05-22T05:30:01.528Z,760.00
2023-05-22T05:31:01.549Z,752.00
2023-05-22T05:32:01.582Z,752.00
2023-05-22T05:33:01.564Z,756.00
2023-05-22T05:34:01.477Z,768.00
2023-05-22T05:35:01.477Z,816.00
2023-05-22T05:36:01.458Z,804.00
2023-05-22T05:37:01.446Z,824.00
2023-05-22T05:38:01.436Z,852.00
2023-05-22T05:39:01.413Z,868.00
2023-05-22T05:40:01.439Z,856.00
2023-05-22T05:41:01.419Z,896.00
2023-05-22T05:42:01.380Z,1228.00
2023-05-22T05:43:01.377Z,1456.00
2023-05-22T05:44:01.384Z,1768.00
2023-05-22T05:45:01.362Z,1400.00
2023-05-22T05:46:01.434Z,1012.00
2023-05-22T05:47:01.337Z,868.00
2023-05-22T05:48:01.406Z,848.00
2023-05-22T05:49:01.337Z,860.00
2023-05-22T05:50:01.315Z,872.00
2023-05-22T05:51:01.291Z,948.00
2023-05-22T05:52:01.276Z,1048.00
2023-05-22T05:53:01.273Z,1272.00
2023-05-22T05:54:01.254Z,1292.00
2023-05-22T05:55:01.256Z,1356.00
2023-05-22T05:56:01.248Z,1368.00
2023-05-22T05:57:01.224Z,1560.00
2023-05-22T05:58:01.222Z,1600.00
2023-05-22T05:59:01.211Z,1672.00
2023-05-22T06:00:01.214Z,1748.00
2023-05-22T06:01:01.195Z,1976.00
2023-05-22T06:02:01.190Z,5628.00
2023-05-22T06:03:01.359Z,2288.00
2023-05-22T06:04:01.244Z,2332.00
2023-05-22T06:05:01.209Z,3364.00
2023-05-22T06:06:01.167Z,2988.00
2023-05-22T06:07:01.128Z,3628.00
2023-05-22T06:08:01.130Z,2852.00
2023-05-22T06:09:01.083Z,3140.00
2023-05-22T06:10:01.088Z,2608.00
2023-05-22T06:11:01.069Z,2720.00
2023-05-22T06:12:01.048Z,2680.00
2023-05-22T06:13:01.037Z,3228.00
2023-05-22T06:14:01.043Z,8448.00
2023-05-22T06:15:01.043Z,7688.00
2023-05-22T06:16:04.071Z,2748.00
2023-05-22T06:17:01.000Z,2924.00
2023-05-22T06:18:01.040Z,2176.00
2023-05-22T06:19:01.017Z,2316.00
2023-05-22T06:20:00.989Z,2404.00
2023-05-22T06:21:00.970Z,2224.00
2023-05-22T06:22:00.941Z,2188.00
2023-05-22T06:23:00.930Z,2104.00
2023-05-22T06:24:00.947Z,1984.00
2023-05-22T06:25:00.924Z,1912.00
2023-05-22T06:26:00.894Z,2012.00
2023-05-22T06:27:00.885Z,2152.00
2023-05-22T06:28:00.891Z,2224.00
2023-05-22T06:29:00.863Z,2692.00
2023-05-22T06:30:00.869Z,2384.00
2023-05-22T06:31:00.841Z,2380.00
2023-05-22T06:32:00.889Z,2296.00
2023-05-22T06:33:00.900Z,2496.00
2023-05-22T06:34:00.854Z,2212.00
2023-05-22T06:35:00.790Z,2060.00
2023-05-22T06:36:00.809Z,2208.00
2023-05-22T06:37:00.782Z,2136.00
2023-05-22T06:38:00.772Z,2320.00
2023-05-22T06:39:00.756Z,2844.00
2023-05-22T06:40:00.759Z,3092.00
2023-05-22T06:41:00.734Z,2612.00
2023-05-22T06:42:00.718Z,2612.00
2023-05-22T06:43:00.745Z,2600.00
2023-05-22T06:44:00.727Z,2620.00
2023-05-22T06:45:00.701Z,2596.00
2023-05-22T06:46:00.716Z,2508.00
2023-05-22T06:47:00.724Z,2464.00
2023-05-22T06:49:21.702Z,2528.00
2023-05-22T06:50:21.678Z,2540.00
2023-05-22T06:51:21.685Z,2752.00
2023-05-22T06:52:21.656Z,2944.00
2023-05-22T06:53:21.633Z,2920.00
2023-05-22T06:54:21.653Z,2740.00
2023-05-22T06:55:21.618Z,3196.00
2023-05-22T06:56:21.594Z,3056.00
2023-05-22T06:57:21.580Z,3236.00
2023-05-22T06:58:21.582Z,3036.00
2023-05-22T06:59:21.579Z,3396.00
2023-05-22T07:00:22.074Z,3436.00
2023-05-22T07:01:22.416Z,3120.00
2023-05-22T07:02:21.584Z,2780.00
2023-05-22T07:03:21.535Z,3128.00
2023-05-22T07:04:21.500Z,3144.00
2023-05-22T07:05:22.042Z,2960.00
2023-05-22T07:06:21.510Z,2852.00
2023-05-22T07:07:21.464Z,2932.00
2023-05-22T07:08:21.478Z,3084.00
2023-05-22T07:09:21.479Z,3108.00
2023-05-22T07:10:21.434Z,2656.00
2023-05-22T07:11:21.431Z,2648.00
2023-05-22T07:12:21.417Z,2556.00
2023-05-22T07:13:21.406Z,2496.00
2023-05-22T07:14:21.411Z,2348.00
2023-05-22T07:15:21.417Z,2272.00
2023-05-22T07:16:21.393Z,2236.00
2023-05-22T07:17:21.371Z,2360.00
2023-05-22T07:18:21.347Z,2452.00
2023-05-22T07:19:21.404Z,2532.00
2023-05-22T07:20:21.349Z,2568.00
2023-05-22T07:21:21.403Z,2580.00
2023-05-22T07:22:21.312Z,2500.00
2023-05-22T07:23:21.301Z,2472.00
2023-05-22T07:24:21.276Z,2448.00
2023-05-22T07:25:21.273Z,2484.00
2023-05-22T07:26:21.271Z,2484.00
2023-05-22T07:27:21.248Z,2512.00
2023-05-22T07:28:21.240Z,2464.00
2023-05-22T07:29:23.085Z,2368.00
2023-05-22T07:30:21.260Z,2404.00
2023-05-22T07:31:21.213Z,2440.00
2023-05-22T07:32:21.272Z,2476.00
2023-05-22T07:33:21.186Z,2436.00
2023-05-22T07:34:21.161Z,2260.00
2023-05-22T07:35:21.199Z,2248.00
2023-05-22T07:36:21.169Z,2204.00
2023-05-22T07:37:21.348Z,2048.00
2023-05-22T07:38:21.126Z,2088.00
2023-05-22T07:39:21.111Z,2128.00
2023-05-22T07:40:21.109Z,2160.00
2023-05-22T07:41:21.091Z,2144.00
2023-05-22T07:42:21.101Z,2124.00
2023-05-22T07:43:21.075Z,2104.00
2023-05-22T07:44:21.065Z,2116.00
2023-05-22T07:45:21.037Z,2100.00
2023-05-22T07:46:21.063Z,2160.00
2023-05-22T07:47:21.093Z,2084.00
2023-05-22T07:48:21.004Z,2152.00
2023-05-22T07:49:20.993Z,2180.00
2023-05-22T07:50:20.985Z,2228.00
2023-05-22T07:51:21.000Z,2320.00
2023-05-22T07:52:20.966Z,2476.00
2023-05-22T07:53:21.313Z,2488.00
2023-05-22T07:54:20.933Z,2432.00
2023-05-22T07:55:20.936Z,2428.00
2023-05-22T07:56:20.918Z,2416.00
2023-05-22T07:57:20.919Z,2376.00
2023-05-22T07:58:20.898Z,2452.00
2023-05-22T07:59:20.885Z,2588.00
2023-05-22T08:00:20.870Z,2692.00
2023-05-22T08:01:20.863Z,2764.00
2023-05-22T08:02:21.018Z,2728.00
2023-05-22T08:03:23.143Z,2736.00
2023-05-22T08:04:20.900Z,2784.00
2023-05-22T08:05:20.834Z,2984.00
2023-05-22T08:06:20.803Z,2880.00
2023-05-22T08:07:20.815Z,3356.00
2023-05-22T08:08:20.779Z,3120.00
2023-05-22T08:09:20.898Z,3164.00
2023-05-22T08:10:20.760Z,2916.00
2023-05-22T08:11:20.743Z,3084.00
2023-05-22T08:12:20.736Z,2760.00
2023-05-22T08:13:20.763Z,3168.00
2023-05-22T08:14:20.720Z,3028.00
2023-05-22T08:15:20.697Z,2952.00
2023-05-22T08:16:20.692Z,3116.00
2023-05-22T08:17:20.768Z,3096.00
2023-05-22T08:18:20.659Z,3040.00
2023-05-22T08:19:20.712Z,3244.00
2023-05-22T08:20:20.701Z,3632.00
2023-05-22T08:21:20.626Z,3908.00
2023-05-22T08:22:20.667Z,3852.00
2023-05-22T08:23:20.600Z,3984.00
2023-05-22T08:24:20.588Z,3716.00
2023-05-22T08:25:20.638Z,3544.00
2023-05-22T08:26:20.579Z,3964.00
2023-05-22T08:27:20.584Z,3848.00
2023-05-22T08:28:20.544Z,3680.00
2023-05-22T08:29:20.549Z,3964.00
2023-05-22T08:30:20.522Z,3856.00
2023-05-22T08:31:20.568Z,3624.00
2023-05-22T08:32:20.584Z,3632.00
2023-05-22T08:33:20.501Z,3848.00
2023-05-22T08:34:20.496Z,4512.00
2023-05-22T08:35:20.470Z,4548.00
2023-05-22T08:36:20.479Z,4232.00
2023-05-22T08:37:20.441Z,4388.00
2023-05-22T08:38:20.460Z,4728.00
2023-05-22T08:39:20.433Z,4604.00
2023-05-22T08:40:20.416Z,4488.00
2023-05-22T08:41:20.449Z,4484.00
2023-05-22T08:42:20.387Z,4640.00
2023-05-22T08:43:20.372Z,4672.00
2023-05-22T08:44:20.415Z,4404.00
2023-05-22T08:45:20.350Z,4368.00
2023-05-22T08:46:20.379Z,4312.00
2023-05-22T08:47:20.381Z,4520.00
2023-05-22T08:48:20.352Z,4392.00
2023-05-22T08:49:21.690Z,3936.00
2023-05-22T08:50:20.295Z,4524.00
2023-05-22T08:51:20.300Z,4608.00
2023-05-22T08:52:20.276Z,4652.00
2023-05-22T08:53:20.266Z,4504.00
2023-05-22T08:54:20.275Z,4504.00
2023-05-22T08:55:20.240Z,4580.00
2023-05-22T08:56:20.258Z,4212.00
2023-05-22T08:57:20.327Z,4300.00
2023-05-22T08:58:20.225Z,4532.00
2023-05-22T08:59:20.211Z,4492.00
2023-05-22T09:00:20.197Z,4540.00
2023-05-22T09:01:20.203Z,4476.00
2023-05-22T09:02:20.183Z,4340.00
2023-05-22T09:03:20.251Z,4512.00
2023-05-22T09:04:20.146Z,4476.00
2023-05-22T09:05:20.151Z,4244.00
2023-05-22T09:06:20.124Z,4336.00
2023-05-22T09:07:20.108Z,4420.00
2023-05-22T09:08:21.212Z,4232.00
2023-05-22T09:09:20.102Z,4216.00
2023-05-22T09:10:20.086Z,4460.00
2023-05-22T09:11:20.064Z,4660.00
2023-05-22T09:12:20.066Z,4532.00
2023-05-22T09:13:20.501Z,4404.00
2023-05-22T09:14:20.047Z,4152.00
2023-05-22T09:15:20.027Z,3396.00
2023-05-22T09:16:20.061Z,3456.00
2023-05-22T09:17:20.000Z,3472.00
2023-05-22T09:18:20.007Z,4464.00
2023-05-22T09:19:20.050Z,4228.00
2023-05-22T09:20:19.969Z,4252.00
2023-05-22T09:21:29.532Z,4380.00
2023-05-22T09:22:22.404Z,4188.00
2023-05-22T09:23:19.936Z,4368.00
2023-05-22T09:24:19.981Z,4120.00
2023-05-22T09:25:19.910Z,3756.00
2023-05-22T09:26:19.902Z,4208.00
2023-05-22T09:27:19.905Z,4220.00
2023-05-22T09:28:19.889Z,4168.00
2023-05-22T09:29:19.898Z,4124.00
2023-05-22T09:30:19.879Z,4248.00
2023-05-22T09:31:19.928Z,4212.00
2023-05-22T09:32:19.834Z,4336.00
2023-05-22T09:33:19.841Z,4088.00
2023-05-22T09:34:19.824Z,4148.00
2023-05-22T09:35:19.804Z,4252.00
2023-05-22T09:36:19.791Z,4224.00
2023-05-22T09:37:19.796Z,4296.00
2023-05-22T09:38:19.783Z,4204.00
2023-05-22T09:39:19.768Z,3856.00
2023-05-22T09:40:19.766Z,3800.00
2023-05-22T09:41:19.735Z,4168.00
2023-05-22T09:42:19.747Z,4024.00
2023-05-22T09:43:19.716Z,3908.00
2023-05-22T09:44:19.718Z,4124.00
2023-05-22T09:45:19.732Z,4156.00
2023-05-22T09:46:19.743Z,3808.00
2023-05-22T09:47:19.709Z,3964.00
2023-05-22T09:48:19.671Z,4120.00
2023-05-22T09:49:19.652Z,3856.00
2023-05-22T09:50:19.637Z,4208.00
2023-05-22T09:51:19.632Z,3260.00
2023-05-22T09:52:19.616Z,3988.00
2023-05-22T09:53:19.615Z,3812.00
2023-05-22T09:54:19.594Z,4100.00
2023-05-22T09:55:19.578Z,3824.00
2023-05-22T09:56:27.534Z,3960.00
2023-05-22T09:57:20.574Z,4016.00
2023-05-22T09:58:19.575Z,3940.00
2023-05-22T09:59:19.538Z,3820.00
2023-05-22T10:00:19.528Z,4004.00
2023-05-22T10:01:19.556Z,3840.00
2023-05-22T10:02:19.523Z,3992.00
2023-05-22T10:03:19.508Z,3980.00
2023-05-22T10:04:19.548Z,4012.00
2023-05-22T10:05:19.469Z,3728.00
2023-05-22T10:06:19.466Z,3868.00
2023-05-22T10:07:19.454Z,3828.00
2023-05-22T10:08:19.442Z,3792.00
2023-05-22T10:09:19.755Z,3820.00
2023-05-22T10:10:19.415Z,3872.00
2023-05-22T10:11:19.402Z,3696.00
2023-05-22T10:12:19.395Z,3756.00
2023-05-22T10:13:19.389Z,3804.00
2023-05-22T10:14:19.384Z,3380.00
2023-05-22T10:15:19.382Z,3624.00
2023-05-22T10:16:19.427Z,3764.00
2023-05-22T10:17:19.460Z,3480.00
2023-05-22T10:18:19.343Z,3688.00
2023-05-22T10:19:19.366Z,3804.00
2023-05-22T10:20:19.307Z,3032.00
2023-05-22T10:21:19.307Z,3492.00
2023-05-22T10:22:19.279Z,3732.00
2023-05-22T10:23:19.342Z,3432.00
2023-05-22T10:24:19.265Z,3504.00
2023-05-22T10:25:19.259Z,3692.00
2023-05-22T10:26:19.245Z,3420.00
2023-05-22T10:27:19.230Z,3480.00
2023-05-22T10:28:19.211Z,3664.00
2023-05-22T10:29:19.217Z,3416.00
2023-05-22T10:30:19.192Z,3540.00
2023-05-22T10:31:19.185Z,3616.00
2023-05-22T10:32:19.170Z,3576.00
2023-05-22T10:33:19.335Z,3592.00
2023-05-22T10:34:19.154Z,3592.00
2023-05-22T10:35:19.149Z,3556.00
2023-05-22T10:36:19.305Z,3580.00
2023-05-22T10:37:20.742Z,3564.00
2023-05-22T10:38:19.101Z,3524.00
2023-05-22T10:39:19.124Z,3560.00
2023-05-22T10:40:19.075Z,3624.00
2023-05-22T10:41:19.070Z,3608.00
2023-05-22T10:42:19.060Z,3544.00
2023-05-22T10:43:19.048Z,3820.00
2023-05-22T10:44:19.036Z,3700.00
2023-05-22T10:45:19.035Z,3508.00
2023-05-22T10:46:19.099Z,3732.00
2023-05-22T10:47:19.010Z,3684.00
2023-05-22T10:48:18.990Z,3452.00
2023-05-22T10:49:19.104Z,3668.00
2023-05-22T10:50:18.983Z,3588.00
2023-05-22T10:51:18.958Z,3440.00
2023-05-22T10:52:18.949Z,3812.00
2023-05-22T10:53:18.944Z,3568.00
2023-05-22T10:54:18.924Z,3696.00
2023-05-22T10:55:18.954Z,3644.00
2023-05-22T10:56:18.914Z,3508.00
2023-05-22T10:57:18.893Z,3848.00
2023-05-22T10:58:18.877Z,3836.00
2023-05-22T10:59:18.869Z,3336.00
2023-05-22T11:00:18.860Z,3144.00
2023-05-22T11:01:18.966Z,3388.00
2023-05-22T11:02:18.917Z,2584.00
2023-05-22T11:03:18.996Z,2728.00
2023-05-22T11:04:18.869Z,2228.00
2023-05-22T11:05:18.856Z,2592.00
2023-05-22T11:06:18.790Z,3652.00
2023-05-22T11:07:18.812Z,3408.00
2023-05-22T11:08:19.481Z,3380.00
2023-05-22T11:09:18.769Z,3324.00
2023-05-22T11:10:18.744Z,3048.00
2023-05-22T11:11:18.752Z,3436.00
2023-05-22T11:12:18.745Z,3060.00
2023-05-22T11:13:18.715Z,3236.00
2023-05-22T11:14:18.705Z,3300.00
2023-05-22T11:15:18.692Z,3584.00
2023-05-22T11:16:18.730Z,3356.00
2023-05-22T11:17:18.677Z,3308.00
2023-05-22T11:18:18.725Z,3236.00
2023-05-22T11:19:23.153Z,3260.00
2023-05-22T11:20:19.636Z,3332.00
2023-05-22T11:21:18.748Z,3528.00
2023-05-22T11:22:18.615Z,3272.00
2023-05-22T11:23:18.607Z,3548.00
2023-05-22T11:24:18.614Z,3276.00
2023-05-22T11:25:18.579Z,3340.00
2023-05-22T11:26:18.589Z,3124.00
2023-05-22T11:27:18.585Z,2280.00
2023-05-22T11:28:18.553Z,2256.00
2023-05-22T11:29:18.544Z,2200.00
2023-05-22T11:30:18.518Z,2204.00
2023-05-22T11:31:18.722Z,2640.00
2023-05-22T11:32:18.503Z,2896.00
2023-05-22T11:33:18.585Z,3052.00
2023-05-22T11:34:18.483Z,2732.00
2023-05-22T11:35:18.479Z,2028.00
2023-05-22T11:36:18.456Z,2072.00
2023-05-22T11:37:18.577Z,2088.00
2023-05-22T11:38:18.435Z,2640.00
2023-05-22T11:39:18.436Z,1960.00
2023-05-22T11:40:18.412Z,1964.00
2023-05-22T11:41:18.398Z,1772.00
2023-05-22T11:42:18.414Z,1776.00
2023-05-22T11:43:18.397Z,1688.00
2023-05-22T11:44:18.398Z,1664.00
2023-05-22T11:45:18.360Z,1740.00
2023-05-22T11:46:18.373Z,1776.00
2023-05-22T11:47:18.348Z,1936.00
2023-05-22T11:48:18.394Z,2348.00
2023-05-22T11:49:18.355Z,2796.00
2023-05-22T11:50:29.237Z,2832.00
2023-05-22T11:51:19.289Z,2896.00
2023-05-22T11:52:18.275Z,3024.00
2023-05-22T11:53:18.421Z,3028.00
2023-05-22T11:54:18.262Z,3004.00
2023-05-22T11:55:18.252Z,3120.00
2023-05-22T11:56:18.291Z,3068.00
2023-05-22T11:57:18.222Z,3012.00
2023-05-22T11:58:18.207Z,3144.00
2023-05-22T11:59:18.215Z,2996.00
2023-05-22T12:00:18.274Z,2944.00
2023-05-22T12:01:18.171Z,2944.00
2023-05-22T12:02:18.168Z,2168.00
2023-05-22T12:03:18.209Z,2080.00
2023-05-22T12:04:18.200Z,2036.00
2023-05-22T12:05:18.163Z,2000.00
2023-05-22T12:06:18.122Z,2144.00
2023-05-22T12:07:18.111Z,2640.00
2023-05-22T12:08:18.090Z,1992.00
2023-05-22T12:09:18.213Z,1804.00
2023-05-22T12:10:18.085Z,1784.00
2023-05-22T12:11:18.062Z,1728.00
2023-05-22T12:12:19.091Z,1936.00
2023-05-22T12:13:18.040Z,2588.00
2023-05-22T12:14:18.032Z,1884.00
2023-05-22T12:15:18.017Z,2028.00
2023-05-22T12:16:18.058Z,2604.00
2023-05-22T12:17:17.996Z,2116.00
2023-05-22T12:18:17.984Z,1876.00
2023-05-22T12:19:18.007Z,1664.00
2023-05-22T12:20:17.976Z,1808.00
2023-05-22T12:21:17.944Z,1940.00
2023-05-22T12:22:17.937Z,1992.00
2023-05-22T12:23:17.922Z,2004.00
2023-05-22T12:24:17.921Z,2516.00
2023-05-22T12:25:18.070Z,2532.00
2023-05-22T12:26:17.902Z,1764.00
2023-05-22T12:27:17.878Z,1760.00
2023-05-22T12:28:17.863Z,1712.00
2023-05-22T12:29:17.866Z,1684.00
2023-05-22T12:30:17.961Z,1812.00